Time;durP1;ratioP1;P1;durP2;ratioP2;P2;SDS_P1;SDS_P2;PMS_P1;PMS_P2;Temp;Humidity;BMP_temperature;BMP_pressure;BME280_temperature;BME280_humidity;BME280_pressure;Samples;Min_cycle;Max_cycle;Signal;HPM_P1;HPM_P2
2023/03/08 00:00:55;;;;;;;20.25;13.80;;;;;;;11.00;57.85;98803.97;4995523;28;20431;-88
2023/03/08 00:03:20;;;;;;;15.90;12.50;;;;;;;10.31;58.17;98703.78;4995489;28;20061;-87
2023/03/08 00:05:46;;;;;;;17.80;12.32;;;;;;;10.23;58.37;98682.84;4995502;28;20026;-88
2023/03/08 00:08:11;;;;;;;16.63;11.88;;;;;;;10.71;58.09;98768.13;4994066;28;20523;-88
2023/03/08 00:10:37;;;;;;;17.50;12.15;;;;;;;10.56;58.29;98768.25;4995358;28;20030;-88
2023/03/08 00:13:02;;;;;;;15.73;12.32;;;;;;;10.54;58.61;98757.09;4995199;28;20028;-88
2023/03/08 00:15:28;;;;;;;15.50;12.32;;;;;;;9.99;58.69;98686.75;4993826;28;20479;-88
2023/03/08 00:17:53;;;;;;;17.70;12.15;;;;;;;10.65;58.68;98813.78;4995139;28;20026;-89
2023/03/08 00:20:19;;;;;;;18.00;13.13;;;;;;;10.68;58.41;98810.75;4995208;28;20518;-88
2023/03/08 00:22:44;;;;;;;14.23;11.48;;;;;;;10.69;58.65;98802.63;4995192;28;20061;-89
2023/03/08 00:25:10;;;;;;;16.98;11.38;;;;;;;10.47;58.36;98767.63;4995086;28;20086;-89
2023/03/08 00:27:36;;;;;;;16.48;11.18;;;;;;;10.06;58.46;98698.97;4993846;28;20062;-89
2023/03/08 00:30:05;;;;;;;14.77;10.73;;;;;;;10.82;58.58;98818.53;4993680;28;20023;-89
2023/03/08 00:32:30;;;;;;;14.80;9.32;;;;;;;10.43;58.64;98752.38;4995051;28;20030;-89
2023/03/08 00:34:56;;;;;;;14.63;10.90;;;;;;;10.09;58.47;98693.31;4995092;28;20096;-88
2023/03/08 00:37:21;;;;;;;14.73;11.52;;;;;;;10.76;58.89;98824.59;4994867;28;20030;-89
2023/03/08 00:39:53;;;;;;;15.10;11.18;;;;;;;10.61;58.33;98794.88;4994749;28;20030;-88
2023/03/08 00:42:20;;;;;;;17.98;11.70;;;;;;;10.68;59.14;98806.28;4995033;28;20022;-88
2023/03/08 00:44:45;;;;;;;17.08;10.95;;;;;;;10.64;58.90;98812.16;4994860;28;20430;-88
2023/03/08 00:47:11;;;;;;;11.98;10.02;;;;;;;10.26;58.84;98756.31;4994783;28;20041;-90
2023/03/08 00:49:36;;;;;;;14.15;11.25;;;;;;;9.64;58.83;98659.56;4994904;28;20030;-89
2023/03/08 00:52:02;;;;;;;14.68;10.32;;;;;;;10.40;59.04;98777.34;4994675;28;20030;-90
2023/03/08 00:54:30;;;;;;;12.23;8.75;;;;;;;9.74;58.43;98666.16;4994231;28;20054;-89
2023/03/08 00:56:56;;;;;;;16.10;11.77;;;;;;;9.76;58.31;98668.59;4994598;28;20574;-89
2023/03/08 00:59:21;;;;;;;16.17;12.07;;;;;;;8.68;59.01;98509.19;4994468;28;20034;-89
2023/03/08 01:01:47;;;;;;;15.52;11.77;;;;;;;10.49;59.11;98804.38;4994478;28;20026;-90
2023/03/08 01:04:12;;;;;;;17.40;11.55;;;;;;;9.81;58.63;98685.44;4993235;28;20567;-90
2023/03/08 01:06:38;;;;;;;18.88;12.48;;;;;;;10.47;58.77;98790.56;4994300;28;20080;-90
2023/03/08 01:09:04;;;;;;;19.05;13.73;;;;;;;9.66;58.46;98663.66;4993103;28;20026;-90
2023/03/08 01:11:30;;;;;;;15.40;12.07;;;;;;;9.55;58.87;98653.63;4992963;28;20037;-89
2023/03/08 01:13:55;;;;;;;16.88;11.95;;;;;;;10.14;58.71;98753.38;4994255;28;20037;-90
2023/03/08 01:16:21;;;;;;;15.32;11.23;;;;;;;10.42;58.60;98796.41;4993949;28;20034;-90
2023/03/08 01:18:46;;;;;;;17.15;10.65;;;;;;;10.40;58.41;98789.69;4992816;28;20061;-90
2023/03/08 01:21:12;;;;;;;12.55;9.88;;;;;;;8.54;58.60;98507.47;4994104;28;20030;-90
2023/03/08 01:23:37;;;;;;;15.60;10.63;;;;;;;9.54;58.33;98689.72;4994077;28;20419;-89
2023/03/08 01:26:06;;;;;;;17.10;11.57;;;;;;;9.81;58.69;98734.72;4994016;28;20054;-89
2023/03/08 01:28:32;;;;;;;14.98;10.85;;;;;;;9.79;58.63;98745.47;4994036;28;20026;-90
2023/03/08 01:31:03;;;;;;;16.35;10.95;;;;;;;10.09;58.91;98793.53;4992615;28;20041;-90
2023/03/08 01:33:29;;;;;;;16.38;11.93;;;;;;;9.44;58.78;98689.22;4993728;28;20455;-90
2023/03/08 01:35:54;;;;;;;17.95;12.40;;;;;;;10.04;59.25;98795.94;4993727;28;20034;-89
2023/03/08 01:38:20;;;;;;;15.10;12.30;;;;;;;10.10;58.78;98811.00;4993895;28;20444;-90
2023/03/08 01:40:45;;;;;;;15.85;11.23;;;;;;;9.61;58.90;98721.38;4993657;28;20030;-90
2023/03/08 01:43:21;;;;;;;18.60;11.38;;;;;;;9.97;59.08;98804.81;4993754;28;20034;-90
2023/03/08 01:46:23;;;;;;;12.80;9.95;;;;;;;10.04;59.18;98795.13;4992485;28;20465;-90
2023/03/08 01:48:54;;;;;;;16.30;11.02;;;;;;;9.98;59.31;98796.69;4993477;28;20030;-90
2023/03/08 01:51:43;;;;;;;13.75;8.35;;;;;;;9.12;59.68;98668.72;4993539;28;20566;-90
2023/03/08 01:54:18;;;;;;;8.38;7.10;;;;;;;9.20;59.57;98664.13;4993300;28;20117;-90
2023/03/08 01:56:46;;;;;;;10.10;7.28;;;;;;;10.03;59.25;98849.69;4993460;28;20026;-90
2023/03/08 01:59:13;;;;;;;10.10;7.28;;;;;;;9.74;59.05;98761.03;4993312;28;20026;-89
2023/03/08 02:01:39;;;;;;;10.98;8.40;;;;;;;10.00;59.29;98802.59;4993100;28;20023;-90
2023/03/08 02:04:05;;;;;;;11.88;8.90;;;;;;;9.28;59.54;98686.06;4991718;28;20022;-89
2023/03/08 02:06:31;;;;;;;10.55;8.20;;;;;;;10.02;59.15;98802.41;4992221;28;20026;-90
2023/03/08 02:08:57;;;;;;;10.32;6.82;;;;;;;9.60;59.22;98746.09;4993386;28;20092;-90
2023/03/08 02:11:24;;;;;;;11.15;7.32;;;;;;;9.15;59.31;98671.78;4992063;28;20160;-90
2023/03/08 02:13:51;;;;;;;13.48;9.45;;;;;;;9.99;59.55;98810.69;4993639;28;20026;-89
2023/03/08 02:16:17;;;;;;;19.38;10.77;;;;;;;9.49;59.50;98739.53;4992135;28;20462;-90
2023/03/08 02:19:23;;;;;;;15.68;12.48;;;;;;;9.57;59.30;98775.47;4993843;28;20109;-90
2023/03/08 02:21:49;;;;;;;16.50;11.00;;;;;;;9.37;59.33;98748.97;4984599;28;20034;-90
2023/03/08 02:24:21;;;;;;;14.93;10.93;;;;;;;9.86;58.62;98816.69;4991901;28;20479;-90
2023/03/08 02:26:48;;;;;;;16.00;11.23;;;;;;;9.42;58.80;98753.66;4993110;28;20030;-90
2023/03/08 02:29:14;;;;;;;15.32;10.93;;;;;;;9.68;58.48;98793.44;4992568;28;20022;-90
2023/03/08 02:31:39;;;;;;;13.27;10.25;;;;;;;9.82;58.39;98816.25;4992691;28;20037;-90
2023/03/08 02:34:05;;;;;;;26.30;17.52;;;;;;;9.02;58.47;98719.06;4992759;28;20105;-90
2023/03/08 02:36:30;;;;;;;17.85;13.65;;;;;;;9.69;58.68;98824.06;4992898;28;20030;-90
2023/03/08 02:38:55;;;;;;;18.60;10.68;;;;;;;9.27;58.55;98800.34;4991206;28;20048;-90
2023/03/08 02:41:21;;;;;;;11.63;9.18;;;;;;;9.10;58.53;98768.16;4992399;28;20034;-90
2023/03/08 02:43:46;;;;;;;9.73;7.80;;;;;;;8.96;58.16;98742.69;4991354;28;20480;-89
2023/03/08 02:46:13;;;;;;;13.52;9.55;;;;;;;9.13;58.21;98773.06;4991279;28;20030;-90
2023/03/08 02:48:38;;;;;;;12.50;9.43;;;;;;;8.96;58.04;98746.16;4991131;28;20069;-90
2023/03/08 02:51:04;;;;;;;10.98;8.55;;;;;;;8.74;57.97;98707.63;4992408;28;20057;-90
2023/03/08 02:53:29;;;;;;;10.82;8.40;;;;;;;9.47;58.16;98846.94;4992394;28;20038;-90
2023/03/08 02:55:55;;;;;;;9.55;6.47;;;;;;;9.40;57.95;98826.81;4992405;28;20033;-90
2023/03/08 02:58:20;;;;;;;7.63;5.00;;;;;;;8.89;58.00;98761.03;4992381;28;20061;-90
2023/03/08 03:00:45;;;;;;;6.03;4.70;;;;;;;8.94;58.21;98776.28;4991029;28;20029;-90
2023/03/08 03:03:11;;;;;;;5.78;4.78;;;;;;;8.53;57.78;98732.09;4992232;28;20050;-90
2023/03/08 03:05:44;;;;;;;8.50;6.60;;;;;;;9.19;58.14;98849.50;4992290;28;20032;-90
2023/03/08 03:08:10;;;;;;;9.45;6.68;;;;;;;8.94;57.93;98816.59;4991966;28;20033;-90
2023/03/08 03:10:37;;;;;;;6.93;5.55;;;;;;;8.36;58.10;98744.63;4992035;28;20540;-91
2023/03/08 03:13:04;;;;;;;7.75;5.85;;;;;;;9.12;57.85;98842.53;4990766;28;20022;-90
2023/03/08 03:15:29;;;;;;;7.95;5.43;;;;;;;8.70;57.85;98783.50;4991958;28;20097;-90
2023/03/08 03:17:55;;;;;;;6.78;5.80;;;;;;;8.67;57.88;98807.53;4991758;28;20570;-90
2023/03/08 03:20:21;;;;;;;10.68;9.05;;;;;;;8.23;58.07;98720.75;4991991;28;20034;-90
2023/03/08 03:22:46;;;;;;;8.88;6.60;;;;;;;8.71;58.10;98816.69;4992070;28;20030;-91
2023/03/08 03:25:12;;;;;;;7.80;6.25;;;;;;;8.33;58.23;98779.19;4991945;28;20058;-90
2023/03/08 03:27:37;;;;;;;9.45;6.63;;;;;;;8.57;58.06;98807.84;4992064;28;20077;-90
2023/03/08 03:30:05;;;;;;;7.78;6.05;;;;;;;8.81;58.02;98850.63;4990697;28;20491;-90
2023/03/08 03:32:30;;;;;;;8.32;6.20;;;;;;;8.42;58.02;98782.53;4990675;28;20439;-89
2023/03/08 03:34:55;;;;;;;6.97;5.82;;;;;;;7.47;58.32;98651.78;4992133;28;20050;-90
2023/03/08 03:37:21;;;;;;;30.88;17.60;;;;;;;8.07;58.04;98739.34;4990788;28;20026;-90
2023/03/08 03:39:46;;;;;;;18.90;12.35;;;;;;;7.82;58.08;98699.38;4991967;28;20037;-90
2023/03/08 03:42:12;;;;;;;14.13;8.32;;;;;;;8.02;57.96;98729.34;4991766;28;20029;-90
2023/03/08 03:44:37;;;;;;;9.27;6.85;;;;;;;8.58;58.28;98866.53;4992071;28;20109;-90
2023/03/08 03:47:03;;;;;;;12.20;6.65;;;;;;;8.34;57.87;98799.22;4991879;28;20392;-89
2023/03/08 03:49:29;;;;;;;8.90;5.80;;;;;;;8.35;58.01;98800.88;4992018;28;20157;-90
2023/03/08 03:51:54;;;;;;;10.10;6.72;;;;;;;8.16;58.04;98788.19;4991851;28;20113;-90
2023/03/08 03:54:20;;;;;;;9.55;6.65;;;;;;;7.84;58.09;98736.78;4990906;28;20038;-90
2023/03/08 03:56:45;;;;;;;7.53;6.53;;;;;;;8.15;58.05;98781.31;4991654;28;20128;-90
2023/03/08 03:59:11;;;;;;;7.28;5.90;;;;;;;8.06;57.30;98779.75;4991855;28;20026;-90
2023/03/08 04:01:36;;;;;;;6.72;5.38;;;;;;;7.46;57.15;98680.84;4991934;28;20029;-90
2023/03/08 04:04:01;;;;;;;6.68;5.05;;;;;;;7.92;57.45;98776.13;4991605;28;20062;-90
2023/03/08 04:06:29;;;;;;;15.82;10.27;;;;;;;7.84;57.60;98778.84;4991844;28;20030;-90
2023/03/08 04:08:59;;;;;;;28.60;15.38;;;;;;;8.44;57.47;98869.97;4991545;28;20030;-89
2023/03/08 04:11:27;;;;;;;10.70;7.03;;;;;;;8.39;57.67;98864.44;4990279;28;20022;-90
2023/03/08 04:13:53;;;;;;;7.95;6.38;;;;;;;8.36;58.03;98880.59;4991700;28;20492;-90
2023/03/08 04:16:24;;;;;;;8.05;6.88;;;;;;;8.37;57.93;98869.06;4991545;28;20022;-90
2023/03/08 04:18:55;;;;;;;6.88;5.95;;;;;;;7.82;57.16;98807.09;4990171;28;20411;-90
2023/03/08 04:21:21;;;;;;;8.82;6.18;;;;;;;8.12;57.82;98871.88;4991384;28;20194;-90
2023/03/08 04:23:47;;;;;;;8.90;6.70;;;;;;;8.23;57.88;98873.28;4991598;28;20034;-90
2023/03/08 04:26:13;;;;;;;9.32;8.00;;;;;;;7.82;57.61;98799.22;4991144;28;20062;-90
2023/03/08 04:28:39;;;;;;;11.55;7.25;;;;;;;8.29;57.13;98883.91;4989919;28;20089;-90
2023/03/08 04:31:26;;;;;;;6.90;6.20;;;;;;;8.04;57.32;98860.63;4993495;28;20029;-90
2023/03/08 04:33:51;;;;;;;7.60;6.15;;;;;;;8.19;57.51;98877.25;4994836;28;20026;-90
2023/03/08 04:36:18;;;;;;;10.63;9.20;;;;;;;8.18;57.87;98883.53;4994847;28;20388;-91
2023/03/08 04:38:45;;;;;;;9.80;8.60;;;;;;;8.14;57.54;98887.47;4994812;28;20030;-90
2023/03/08 04:41:10;;;;;;;12.95;9.75;;;;;;;8.11;57.51;98886.03;4994983;28;20034;-90
2023/03/08 04:43:38;;;;;;;12.98;11.60;;;;;;;7.41;57.52;98789.03;4994531;28;20530;-90
2023/03/08 04:46:05;;;;;;;20.05;16.85;;;;;;;8.05;57.31;98892.00;4994526;28;20492;-90
2023/03/08 04:48:32;;;;;;;29.90;23.15;;;;;;;7.15;57.83;98750.00;4994547;28;20113;-90
2023/03/08 04:51:00;;;;;;;30.65;27.20;;;;;;;8.02;57.75;98913.38;4994766;28;20026;-90
2023/03/08 04:53:26;;;;;;;29.45;23.63;;;;;;;8.01;57.44;98898.59;4994469;28;20098;-90
2023/03/08 04:55:52;;;;;;;20.58;18.38;;;;;;;7.98;57.23;98902.41;4993371;28;20026;-90
2023/03/08 04:58:18;;;;;;;22.02;18.17;;;;;;;7.11;57.29;98835.34;4994502;28;20037;-90
2023/03/08 05:00:44;;;;;;;19.65;16.13;;;;;;;7.38;57.91;98834.03;4994892;28;20026;-90
2023/03/08 05:03:09;;;;;;;21.02;15.73;;;;;;;6.45;57.36;98696.81;4994556;28;20059;-90
2023/03/08 05:05:35;;;;;;;23.67;18.52;;;;;;;7.52;57.27;98879.75;4994453;28;20038;-90
2023/03/08 05:08:04;;;;;;;20.92;17.05;;;;;;;6.91;57.97;98803.47;4994261;28;20030;-90
2023/03/08 05:10:30;;;;;;;17.98;14.30;;;;;;;7.41;57.57;98862.56;4993189;28;20084;-91
2023/03/08 05:12:56;;;;;;;15.57;12.70;;;;;;;7.23;57.72;98847.09;4994312;28;20037;-91
2023/03/08 05:15:22;;;;;;;17.80;12.95;;;;;;;7.16;57.78;98840.09;4994239;28;20026;-90
2023/03/08 05:17:48;;;;;;;20.55;13.65;;;;;;;7.71;57.99;98937.09;4994181;28;20744;-90
2023/03/08 05:20:14;;;;;;;22.58;17.25;;;;;;;7.27;57.51;98860.69;4993850;28;20451;-90
2023/03/08 05:22:39;;;;;;;21.50;15.40;;;;;;;7.47;57.44;98918.88;4993950;28;20106;-90
2023/03/08 05:25:05;;;;;;;16.17;13.88;;;;;;;6.95;57.65;98811.81;4993809;28;20181;-90
2023/03/08 05:27:32;;;;;;;18.70;12.80;;;;;;;7.05;58.04;98832.59;4993825;28;20026;-90
2023/03/08 05:29:57;;;;;;;16.45;11.15;;;;;;;6.93;58.00;98813.81;4993719;28;20042;-91
2023/03/08 05:32:22;;;;;;;16.52;11.20;;;;;;;6.89;57.43;98817.75;4993750;28;20487;-90
2023/03/08 05:34:49;;;;;;;17.23;12.63;;;;;;;7.33;57.97;98897.56;4993800;28;20081;-90
2023/03/08 05:37:14;;;;;;;15.30;12.23;;;;;;;7.34;57.69;98893.13;4992490;28;20026;-90
2023/03/08 05:39:40;;;;;;;15.18;11.45;;;;;;;7.59;57.28;98917.47;4993625;28;20496;-88
2023/03/08 05:42:05;;;;;;;16.05;10.50;;;;;;;7.19;57.02;98832.69;4992782;28;20026;-88
2023/03/08 05:44:31;;;;;;;13.73;10.63;;;;;;;7.22;57.14;98842.84;4999091;28;20034;-88
2023/03/08 05:46:56;;;;;;;15.75;10.77;;;;;;;7.51;57.10;98872.88;5014974;28;20050;-86
2023/03/08 05:49:22;;;;;;;14.52;11.60;;;;;;;6.98;57.32;98772.13;4998542;28;20030;-88
2023/03/08 05:51:47;;;;;;;19.23;12.40;;;;;;;7.80;57.22;98904.50;4992389;28;20026;-88
2023/03/08 05:54:12;;;;;;;16.17;12.50;;;;;;;7.55;57.29;98838.19;4993361;28;20074;-88
2023/03/08 05:56:38;;;;;;;18.25;13.30;;;;;;;7.87;56.77;98883.59;4991907;28;20018;-88
2023/03/08 05:59:03;;;;;;;20.27;13.30;;;;;;;7.54;57.07;98825.25;4992926;28;20120;-88
2023/03/08 06:01:28;;;;;;;18.25;13.18;;;;;;;7.61;57.17;98832.25;4992731;28;20066;-86
2023/03/08 06:03:56;;;;;;;26.65;17.70;;;;;;;8.00;57.31;98888.25;4992650;28;20618;-88
2023/03/08 06:06:24;;;;;;;25.90;18.83;;;;;;;8.10;57.27;98899.34;4992628;28;20420;-88
2023/03/08 06:08:50;;;;;;;20.08;15.55;;;;;;;8.47;57.34;98966.94;4992514;28;20061;-88
2023/03/08 06:11:16;;;;;;;22.35;15.45;;;;;;;7.79;57.40;98849.50;4992731;28;20097;-88
2023/03/08 06:13:42;;;;;;;16.30;13.98;;;;;;;8.30;57.85;98942.59;4992213;28;20026;-88
2023/03/08 06:16:08;;;;;;;21.90;14.07;;;;;;;8.18;57.85;98891.41;4992456;28;20093;-87
2023/03/08 06:18:38;;;;;;;21.77;15.13;;;;;;;8.39;57.85;98912.59;4992337;28;20022;-87
2023/03/08 06:21:15;;;;;;;18.30;13.73;;;;;;;8.88;57.74;98977.88;4992405;28;20022;-88
2023/03/08 06:23:41;;;;;;;18.92;15.15;;;;;;;8.33;57.75;98896.69;4992422;28;20030;-87
2023/03/08 06:26:07;;;;;;;18.05;13.88;;;;;;;9.05;57.66;98978.56;4992195;28;20054;-87
2023/03/08 06:28:33;;;;;;;23.38;14.38;;;;;;;9.08;57.99;98986.91;4992827;28;20029;-87
2023/03/08 06:30:58;;;;;;;19.58;14.77;;;;;;;8.64;57.92;98928.97;4991299;28;20023;-87
2023/03/08 06:33:27;;;;;;;21.58;15.07;;;;;;;9.19;57.81;98997.00;4992757;28;20109;-87
2023/03/08 06:35:56;;;;;;;23.15;16.10;;;;;;;9.32;57.82;98996.34;4992369;28;20022;-87
2023/03/08 06:38:22;;;;;;;22.13;15.52;;;;;;;8.96;57.89;98943.59;4991819;28;20068;-87
2023/03/08 06:40:47;;;;;;;23.90;15.40;;;;;;;9.14;57.48;98940.59;4992570;28;20030;-87
2023/03/08 06:43:13;;;;;;;20.35;15.63;;;;;;;8.73;57.23;98874.41;4991521;28;20065;-86
2023/03/08 06:45:39;;;;;;;20.40;15.70;;;;;;;9.66;57.68;99008.94;4990540;28;20562;-87
2023/03/08 06:48:05;;;;;;;19.92;15.65;;;;;;;9.72;57.77;99013.47;4990306;28;20109;-86
2023/03/08 06:50:32;;;;;;;18.95;14.95;;;;;;;9.04;57.82;98903.19;4992026;28;20168;-87
2023/03/08 06:52:58;;;;;;;20.45;17.25;;;;;;;9.88;57.97;99015.06;4990797;28;20388;-87
2023/03/08 06:55:23;;;;;;;24.45;17.63;;;;;;;9.91;57.85;99027.06;4991250;28;20041;-87
2023/03/08 06:57:48;;;;;;;20.90;14.45;;;;;;;9.36;57.85;98934.38;4991698;28;20026;-89
2023/03/08 07:00:14;;;;;;;19.52;15.70;;;;;;;10.06;57.53;99018.09;4989524;28;20557;-89
2023/03/08 07:02:40;;;;;;;21.25;16.35;;;;;;;9.41;57.60;98896.94;4986842;28;20025;-86
2023/03/08 07:05:05;;;;;;;19.10;15.80;;;;;;;8.32;57.83;98785.41;4990931;28;20022;-89
2023/03/08 07:07:31;;;;;;;21.50;15.43;;;;;;;9.68;58.08;98985.84;4982790;28;20047;-88
2023/03/08 07:09:57;;;;;;;21.42;17.48;;;;;;;10.06;58.60;99020.75;4983785;28;20031;-88
2023/03/08 07:12:22;;;;;;;20.90;16.45;;;;;;;9.75;58.74;98960.38;4996289;28;20089;-88
2023/03/08 07:14:50;;;;;;;22.25;15.05;;;;;;;9.38;58.69;98935.00;4994817;28;20038;-90
2023/03/08 07:17:15;;;;;;;19.13;16.00;;;;;;;8.66;58.87;98758.56;4992793;28;20024;-87
2023/03/08 07:19:41;;;;;;;15.88;13.32;;;;;;;9.88;58.82;98952.59;4999857;28;20018;-87
2023/03/08 07:22:06;;;;;;;23.75;17.35;;;;;;;9.68;58.91;98916.50;5004645;28;20514;-86
2023/03/08 07:24:31;;;;;;;31.92;21.83;;;;;;;9.69;59.23;98928.69;4995194;28;20136;-87
2023/03/08 07:26:57;;;;;;;19.85;14.05;;;;;;;10.01;58.75;98935.28;4991102;28;20515;-87
2023/03/08 07:29:22;;;;;;;17.88;13.05;;;;;;;9.71;58.53;98895.84;4988669;28;20061;-87
2023/03/08 07:31:48;;;;;;;16.08;11.23;;;;;;;9.80;58.67;98892.09;4989419;28;20492;-87
2023/03/08 07:34:13;;;;;;;12.27;9.63;;;;;;;10.61;57.85;98999.97;5002583;28;20110;-87
2023/03/08 07:36:39;;;;;;;10.38;8.50;;;;;;;10.85;57.87;99027.78;4988286;28;20026;-87
2023/03/08 07:39:05;;;;;;;9.63;7.45;;;;;;;10.61;57.95;98977.03;4988951;28;20026;-87
2023/03/08 07:41:31;;;;;;;12.07;8.25;;;;;;;10.99;57.21;99021.56;4987696;28;20022;-87
2023/03/08 07:43:57;;;;;;;9.95;6.78;;;;;;;10.98;57.30;99041.06;4987700;28;20026;-86
2023/03/08 07:46:23;;;;;;;9.27;8.25;;;;;;;10.59;57.20;98938.63;4989982;28;20121;-87
2023/03/08 07:48:50;;;;;;;10.15;8.25;;;;;;;10.85;57.50;98962.56;4983494;28;20101;-87
2023/03/08 07:51:15;;;;;;;11.55;9.18;;;;;;;11.41;57.12;99037.28;4998960;28;20026;-86
2023/03/08 07:53:41;;;;;;;7.85;7.05;;;;;;;10.99;56.52;98953.72;4983687;28;20026;-87
2023/03/08 07:56:07;;;;;;;12.43;8.70;;;;;;;10.91;56.59;98919.53;4982418;28;20113;-86
2023/03/08 07:58:32;;;;;;;13.35;10.18;;;;;;;11.52;56.21;98990.16;4980633;28;20025;-86
2023/03/08 08:00:58;;;;;;;13.98;9.48;;;;;;;11.89;56.12;99037.34;4979972;28;20472;-86
2023/03/08 08:03:23;;;;;;;12.45;9.15;;;;;;;11.76;55.78;99010.78;4987412;28;20030;-86
2023/03/08 08:05:49;;;;;;;8.98;7.45;;;;;;;11.49;56.18;98941.16;4984997;28;20026;-86
2023/03/08 08:08:14;;;;;;;12.60;8.88;;;;;;;11.97;56.19;99000.13;4992195;28;20031;-86
2023/03/08 08:10:40;;;;;;;9.38;6.00;;;;;;;12.30;55.35;99031.13;4990380;28;20037;-87
2023/03/08 08:13:06;;;;;;;7.82;6.88;;;;;;;11.90;55.23;98991.38;4991233;28;20480;-86
2023/03/08 08:15:35;;;;;;;10.60;7.07;;;;;;;12.17;55.24;98980.81;4991908;28;20105;-86
2023/03/08 08:18:00;;;;;;;10.68;7.00;;;;;;;11.98;55.01;98932.97;4989309;28;20054;-85
2023/03/08 08:20:26;;;;;;;6.00;5.20;;;;;;;11.96;54.48;98924.44;4991651;28;20441;-85
2023/03/08 08:22:52;;;;;;;5.95;4.82;;;;;;;12.77;54.38;99038.13;4994007;28;20096;-85
2023/03/08 08:25:19;;;;;;;8.75;5.80;;;;;;;12.36;54.01;98949.06;4992898;28;20045;-85
2023/03/08 08:27:44;;;;;;;6.55;5.63;;;;;;;12.43;53.80;98951.72;4994399;28;20145;-85
2023/03/08 08:30:12;;;;;;;7.88;6.38;;;;;;;13.09;53.89;99039.09;4994960;28;20566;-86
2023/03/08 08:32:38;;;;;;;7.15;5.43;;;;;;;13.15;53.76;99029.50;5003983;28;20030;-86
2023/03/08 08:35:03;;;;;;;6.28;5.03;;;;;;;12.67;53.54;98959.06;4999393;28;20088;-85
2023/03/08 08:37:31;;;;;;;7.43;5.63;;;;;;;13.22;53.47;99032.97;4994425;28;20058;-85
2023/03/08 08:39:57;;;;;;;9.05;6.03;;;;;;;13.27;53.42;99028.69;4994441;28;20105;-85
2023/03/08 08:42:22;;;;;;;7.05;5.68;;;;;;;13.32;53.61;99030.72;4993461;28;20578;-85
2023/03/08 08:44:47;;;;;;;5.30;4.80;;;;;;;13.23;53.49;99002.81;4993332;28;20018;-84
2023/03/08 08:47:13;;;;;;;7.38;5.35;;;;;;;13.04;53.23;98952.25;4991618;28;20037;-84
2023/03/08 08:49:38;;;;;;;11.13;7.38;;;;;;;13.10;53.01;98950.59;4991433;28;20061;-85
2023/03/08 08:52:04;;;;;;;10.82;8.82;;;;;;;13.32;52.48;98967.09;4991303;28;20406;-84
2023/03/08 08:54:29;;;;;;;12.07;10.45;;;;;;;13.48;52.39;98974.59;4993440;28;20018;-85
2023/03/08 08:56:55;;;;;;;9.95;7.70;;;;;;;13.53;52.15;98980.09;4991614;28;20026;-85
2023/03/08 08:59:20;;;;;;;7.80;5.75;;;;;;;13.11;51.56;98895.75;4987354;28;20495;-85
2023/03/08 09:01:46;;;;;;;8.02;6.47;;;;;;;13.31;51.62;98920.38;5005053;28;20022;-85
2023/03/08 09:04:13;;;;;;;8.80;7.13;;;;;;;13.85;51.23;98982.78;4988761;28;20310;-85
2023/03/08 09:06:39;;;;;;;8.20;7.38;;;;;;;13.95;50.83;98977.81;4989642;28;20105;-85
2023/03/08 09:09:05;;;;;;;10.43;9.10;;;;;;;13.96;50.66;98966.19;4987216;28;20051;-86
2023/03/08 09:11:31;;;;;;;9.52;7.60;;;;;;;13.98;50.68;98970.25;4993538;28;20085;-87
2023/03/08 09:13:56;;;;;;;6.82;5.15;;;;;;;14.21;49.90;98976.88;4986437;28;20154;-85
2023/03/08 09:16:25;;;;;;;9.02;6.18;;;;;;;14.55;49.94;99013.63;4984439;28;20495;-86
2023/03/08 09:18:51;;;;;;;12.00;7.53;;;;;;;13.99;49.75;98902.06;4985191;28;20418;-85
2023/03/08 09:21:17;;;;;;;7.93;6.40;;;;;;;14.78;49.40;99009.53;4987005;28;20022;-85
2023/03/08 09:23:43;;;;;;;6.35;5.38;;;;;;;14.90;48.81;99019.28;4987048;28;20045;-86
2023/03/08 09:26:09;;;;;;;7.75;5.63;;;;;;;15.04;48.37;99016.47;4984922;28;20050;-85
2023/03/08 09:28:35;;;;;;;8.40;6.47;;;;;;;15.15;48.07;99011.25;4990315;28;20050;-85
2023/03/08 09:31:10;;;;;;;9.57;6.15;;;;;;;15.26;47.40;99010.53;4988430;28;20474;-86
2023/03/08 09:33:36;;;;;;;10.80;6.50;;;;;;;15.36;47.10;99047.25;4981634;28;20101;-85
2023/03/08 09:36:02;;;;;;;7.55;5.80;;;;;;;15.38;46.87;99004.47;4988770;28;20033;-85
2023/03/08 09:38:27;;;;;;;9.05;6.35;;;;;;;14.68;46.51;98879.03;4989672;28;20050;-87
2023/03/08 09:41:02;;;;;;;6.82;5.53;;;;;;;15.15;45.92;98931.47;4988754;28;20026;-85
2023/03/08 09:43:45;;;;;;;5.82;5.13;;;;;;;15.23;45.68;98925.84;4991106;28;20026;-84
2023/03/08 09:46:15;;;;;;;6.40;5.47;;;;;;;15.28;45.36;98925.19;4990149;28;20041;-84
2023/03/08 09:48:46;;;;;;;12.48;6.75;;;;;;;15.93;45.13;99004.44;4983673;28;20026;-85
2023/03/08 09:51:16;;;;;;;9.07;6.78;;;;;;;15.99;44.84;98990.22;4991481;28;20030;-85
2023/03/08 09:53:48;;;;;;;11.98;6.53;;;;;;;16.25;44.49;99007.69;4989816;28;20104;-85
2023/03/08 09:56:16;;;;;;;7.38;5.55;;;;;;;16.38;43.83;99005.66;4989237;28;20484;-84
2023/03/08 09:59:11;;;;;;;9.13;6.25;;;;;;;16.53;43.15;98998.03;4993994;28;20410;-84
2023/03/08 10:02:14;;;;;;;6.28;4.90;;;;;;;16.68;43.00;98986.94;4985649;28;20042;-85
2023/03/08 10:04:58;;;;;;;10.23;6.28;;;;;;;16.90;42.67;98987.19;4964919;28;20030;-85
2023/03/08 10:07:39;;;;;;;10.40;6.30;;;;;;;17.08;42.40;99002.25;4988566;28;20030;-84
2023/03/08 10:10:11;;;;;;;6.82;5.88;;;;;;;17.13;41.93;98962.38;4983376;28;20022;-84
2023/03/08 10:13:05;;;;;;;7.38;6.55;;;;;;;17.02;41.44;98933.84;4982405;28;20034;-84
2023/03/08 10:15:35;;;;;;;7.43;5.40;;;;;;;17.49;41.25;98985.28;4988995;28;20029;-85
2023/03/08 10:18:16;;;;;;;6.53;5.28;;;;;;;17.63;40.86;98977.78;4990896;28;20100;-84
2023/03/08 10:20:42;;;;;;;7.10;5.38;;;;;;;17.57;40.70;98971.56;4989808;28;20026;-85
2023/03/08 10:23:19;;;;;;;6.90;5.00;;;;;;;17.52;40.29;98923.41;4988393;28;20096;-85
2023/03/08 10:25:46;;;;;;;5.32;4.70;;;;;;;17.84;39.71;98965.69;4987349;28;20046;-82
2023/03/08 10:28:18;;;;;;;8.30;5.15;;;;;;;17.87;39.42;98930.50;4989855;28;20085;-85
2023/03/08 10:30:53;;;;;;;7.13;4.55;;;;;;;18.24;39.01;98977.09;4990440;28;20026;-85
2023/03/08 10:33:20;;;;;;;6.13;4.90;;;;;;;17.92;38.71;98912.72;4990223;28;20092;-85
2023/03/08 10:35:57;;;;;;;6.85;4.80;;;;;;;18.24;38.24;98914.84;4991052;28;20101;-85
2023/03/08 10:38:26;;;;;;;5.05;3.17;;;;;;;18.50;37.17;98940.91;4991929;28;20025;-85
2023/03/08 10:41:08;;;;;;;3.88;2.90;;;;;;;18.75;36.37;98966.47;4981442;28;20034;-85
2023/03/08 10:43:38;;;;;;;3.30;2.65;;;;;;;18.78;35.56;98971.31;5005216;28;20032;-85
2023/03/08 10:46:11;;;;;;;2.97;2.50;;;;;;;18.85;35.87;98959.41;4991743;28;20033;-85
2023/03/08 10:48:36;;;;;;;3.10;2.80;;;;;;;18.76;35.40;98920.75;4991965;28;20062;-85
2023/03/08 10:51:14;;;;;;;5.38;2.83;;;;;;;19.16;35.03;98963.31;4991822;28;20101;-85
2023/03/08 10:53:51;;;;;;;3.72;2.55;;;;;;;19.18;34.35;98960.38;4991821;28;20022;-85
2023/03/08 10:56:45;;;;;;;2.65;2.15;;;;;;;19.27;33.88;98958.88;4991897;28;20029;-86
2023/03/08 10:59:31;;;;;;;3.25;2.25;;;;;;;19.12;33.42;98915.88;4985941;28;20053;-85
2023/03/08 11:01:59;;;;;;;3.63;2.75;;;;;;;19.41;33.40;98927.22;4991370;28;20023;-86
2023/03/08 11:04:28;;;;;;;4.13;2.67;;;;;;;19.50;32.92;98934.56;4990512;28;20030;-86
2023/03/08 11:06:54;;;;;;;2.40;2.05;;;;;;;19.27;32.72;98897.31;4990482;28;20157;-86
2023/03/08 11:09:25;;;;;;;3.58;2.42;;;;;;;19.08;32.36;98845.19;4986650;28;20022;-86
2023/03/08 11:11:51;;;;;;;4.85;3.60;;;;;;;18.98;32.29;98813.78;4988830;28;20092;-86
2023/03/08 11:14:17;;;;;;;2.60;2.40;;;;;;;19.02;32.09;98809.53;4989885;28;20125;-85
2023/03/08 11:17:00;;;;;;;2.80;2.25;;;;;;;19.79;30.46;98913.75;4988871;28;20083;-85
2023/03/08 11:19:31;;;;;;;4.75;2.50;;;;;;;19.78;31.29;98912.13;4989749;28;20487;-86
2023/03/08 11:21:58;;;;;;;2.20;2.00;;;;;;;19.78;30.96;98911.31;4991396;28;20029;-86
2023/03/08 11:24:42;;;;;;;3.20;2.10;;;;;;;19.90;31.29;98898.56;4990362;28;20474;-84
2023/03/08 11:27:18;;;;;;;4.70;2.90;;;;;;;20.07;31.31;98896.59;4987008;28;20045;-85
2023/03/08 11:30:02;;;;;;;2.80;2.47;;;;;;;20.19;30.41;98894.56;4989518;28;20031;-85
2023/03/08 11:32:54;;;;;;;2.92;2.47;;;;;;;20.08;29.89;98858.03;4987307;28;20022;-85